Time;durP1;ratioP1;P1;durP2;ratioP2;P2;SDS_P1;SDS_P2;PMS_P1;PMS_P2;Temp;Humidity;BMP_temperature;BMP_pressure;BME280_temperature;BME280_humidity;BME280_pressure;Samples;Min_cycle;Max_cycle;Signal;HPM_P1;HPM_P2
2022/08/30 00:01:28;;;;;;;;;;;;;;;;;;10500249;28;19925;-62
2022/08/30 00:06:30;;;;;;;;;;;;;;;;;;10501216;28;19932;-62
2022/08/30 00:11:32;;;;;;;;;;;;;;;;;;10501831;28;19931;-62
2022/08/30 00:16:34;;;;;;;;;;;;;;;;;;10498860;28;19925;-62
2022/08/30 00:21:38;;;;;;;;;;;;;;;;;;10500420;28;19925;-61
2022/08/30 00:26:40;;;;;;;;;;;;;;;;;;10499973;28;19929;-61
2022/08/30 00:31:42;;;;;;;;;;;;;;;;;;10499337;28;19932;-62
2022/08/30 00:36:44;;;;;;;;;;;;;;;;;;10498690;28;19931;-62
2022/08/30 00:41:47;;;;;;;;;;;;;;;;;;10500132;28;19924;-61
2022/08/30 00:46:49;;;;;;;;;;;;;;;;;;10499227;28;19924;-61
2022/08/30 00:51:51;;;;;;;;;;;;;;;;;;10498733;28;19939;-61
2022/08/30 00:56:54;;;;;;;;;;;;;;;;;;10496191;28;20303;-62
2022/08/30 01:01:56;;;;;;;;;;;;;;;;;;10498455;28;19924;-61
2022/08/30 01:06:59;;;;;;;;;;;;;;;;;;10498696;28;19924;-62
2022/08/30 01:12:01;;;;;;;;;;;;;;;;;;10498509;28;20018;-62
2022/08/30 01:17:03;;;;;;;;;;;;;;;;;;10497313;28;19928;-62
2022/08/30 01:22:05;;;;;;;;;;;;;;;;;;10498959;28;19932;-62
2022/08/30 01:27:07;;;;;;;;;;;;;;;;;;10498905;28;19925;-62
2022/08/30 01:32:10;;;;;;;;;;;;;;;;;;10495554;28;19924;-61
2022/08/30 01:37:14;;;;;;;;;;;;;;;;;;10497102;28;19924;-62
2022/08/30 01:42:16;;;;;;;;;;;;;;;;;;10497333;28;19925;-61
2022/08/30 01:47:20;;;;;;;;;;;;;;;;;;10497851;28;20368;-61
2022/08/30 01:52:22;;;;;;;;;;;;;;;;;;10496618;28;19925;-61
2022/08/30 01:57:25;;;;;;;;;;;;;;;;;;10497281;28;19925;-62
2022/08/30 02:02:27;;;;;;;;;;;;;;;;;;10497325;28;20291;-62
2022/08/30 02:07:29;;;;;;;;;;;;;;;;;;10496764;28;19924;-62
2022/08/30 02:12:32;;;;;;;;;;;;;;;;;;10468752;28;19925;-61
2022/08/30 02:17:34;;;;;;;;;;;;;;;;;;10496080;28;19924;-61
2022/08/30 02:22:36;;;;;;;;;;;;;;;;;;10497822;28;19925;-64
2022/08/30 02:27:38;;;;;;;;;;;;;;;;;;10496133;28;19931;-64
2022/08/30 02:32:40;;;;;;;;;;;;;;;;;;10496151;28;20363;-64
2022/08/30 02:37:42;;;;;;;;;;;;;;;;;;10496540;28;19924;-64
2022/08/30 02:42:44;;;;;;;;;;;;;;;;;;10500201;28;19931;-64
2022/08/30 02:47:46;;;;;;;;;;;;;;;;;;10504051;28;20252;-64
2022/08/30 02:52:48;;;;;;;;;;;;;;;;;;10501220;28;19931;-64
2022/08/30 02:57:51;;;;;;;;;;;;;;;;;;10485105;28;19925;-64
2022/08/30 03:02:53;;;;;;;;;;;;;;;;;;10503837;28;19934;-64
2022/08/30 03:07:55;;;;;;;;;;;;;;;;;;10503361;28;19929;-64
2022/08/30 03:12:57;;;;;;;;;;;;;;;;;;10502655;28;19931;-64
2022/08/30 03:17:59;;;;;;;;;;;;;;;;;;10468023;28;19924;-64
2022/08/30 03:23:01;;;;;;;;;;;;;;;;;;10503350;28;19925;-64
2022/08/30 03:28:04;;;;;;;;;;;;;;;;;;10502227;28;19928;-64
2022/08/30 03:33:06;;;;;;;;;;;;;;;;;;10501924;28;20003;-64
2022/08/30 03:38:08;;;;;;;;;;;;;;;;;;10501266;28;19924;-64
2022/08/30 03:43:10;;;;;;;;;;;;;;;;;;10503080;28;19924;-64
2022/08/30 03:48:12;;;;;;;;;;;;;;;;;;10502337;28;19932;-64
2022/08/30 03:53:14;;;;;;;;;;;;;;;;;;10498595;28;19924;-64
2022/08/30 03:58:16;;;;;;;;;;;;;;;;;;10501145;28;19925;-64
2022/08/30 04:03:24;;;;;;;;;;;;;;;;;;10501226;28;19985;-64
2022/08/30 04:08:26;;;;;;;;;;;;;;;;;;10499981;28;20452;-64
2022/08/30 04:13:29;;;;;;;;;;;;;;;;;;10500287;28;19932;-64
2022/08/30 04:18:31;;;;;;;;;;;;;;;;;;10514935;22;19925;-62
2022/08/30 04:23:33;;;;;;;;;;;;;;;;;;10499959;28;19931;-63
2022/08/30 04:28:35;;;;;;;;;;;;;;;;;;10499847;28;19924;-62
2022/08/30 04:33:37;;;;;;;;;;;;;;;;;;10498985;28;20299;-63
2022/08/30 04:38:39;;;;;;;;;;;;;;;;;;10482354;28;19924;-62
2022/08/30 04:43:41;;;;;;;;;;;;;;;;;;10499457;28;19932;-62
2022/08/30 04:48:44;;;;;;;;;;;;;;;;;;10499130;28;19924;-62
2022/08/30 04:53:46;;;;;;;;;;;;;;;;;;10498126;28;20312;-62
2022/08/30 04:58:49;;;;;;;;;;;;;;;;;;10498876;28;20287;-62
2022/08/30 05:03:51;;;;;;;;;;;;;;;;;;10499301;28;19931;-62
2022/08/30 05:08:53;;;;;;;;;;;;;;;;;;10498605;28;19924;-63
2022/08/30 05:13:55;;;;;;;;;;;;;;;;;;10498154;28;19931;-63
2022/08/30 05:18:57;;;;;;;;;;;;;;;;;;10498277;28;19924;-62
2022/08/30 05:23:59;;;;;;;;;;;;;;;;;;10498957;28;19925;-62
2022/08/30 05:29:01;;;;;;;;;;;;;;;;;;10496747;28;19925;-63
2022/08/30 05:34:04;;;;;;;;;;;;;;;;;;10495787;28;19925;-63
2022/08/30 05:39:06;;;;;;;;;;;;;;;;;;10498681;28;19925;-63
2022/08/30 05:44:08;;;;;;;;;;;;;;;;;;10496586;28;19935;-63
2022/08/30 05:49:10;;;;;;;;;;;;;;;;;;10498455;28;19924;-63
2022/08/30 05:54:12;;;;;;;;;;;;;;;;;;10497904;28;20375;-62
2022/08/30 05:59:14;;;;;;;;;;;;;;;;;;10497560;28;20390;-63
2022/08/30 06:04:17;;;;;;;;;;;;;;;;;;10496523;28;20435;-62
2022/08/30 06:09:19;;;;;;;;;;;;;;;;;;10497453;28;20387;-63
2022/08/30 06:14:21;;;;;;;;;;;;;;;;;;10497966;28;19925;-62
2022/08/30 06:19:23;;;;;;;;;;;;;;;;;;10503437;28;19931;-62
2022/08/30 06:24:25;;;;;;;;;;;;;;;;;;10505543;28;19925;-63
2022/08/30 06:29:42;;;;;;;;;;;;;;;;;;10503486;28;19986;-63
2022/08/30 06:34:44;;;;;;;;;;;;;;;;;;10487524;28;19931;-63
2022/08/30 06:39:46;;;;;;;;;;;;;;;;;;10504952;28;19925;-63
2022/08/30 06:44:48;;;;;;;;;;;;;;;;;;10505558;28;19936;-63
2022/08/30 06:49:50;;;;;;;;;;;;;;;;;;10503979;28;20367;-63
2022/08/30 06:54:52;;;;;;;;;;;;;;;;;;10503637;28;19925;-63
2022/08/30 06:59:54;;;;;;;;;;;;;;;;;;10504233;28;19931;-64
2022/08/30 07:04:58;;;;;;;;;;;;;;;;;;10503469;28;19979;-63
2022/08/30 07:10:00;;;;;;;;;;;;;;;;;;10502723;28;19932;-63
2022/08/30 07:15:02;;;;;;;;;;;;;;;;;;10502993;28;20029;-64
2022/08/30 07:20:04;;;;;;;;;;;;;;;;;;10502759;28;19932;-64
2022/08/30 07:25:06;;;;;;;;;;;;;;;;;;10500965;28;19925;-64
2022/08/30 07:30:08;;;;;;;;;;;;;;;;;;10500299;28;19940;-64
2022/08/30 07:35:11;;;;;;;;;;;;;;;;;;10501154;28;20299;-64
2022/08/30 07:40:13;;;;;;;;;;;;;;;;;;10501540;28;19935;-64
2022/08/30 07:45:15;;;;;;;;;;;;;;;;;;10500360;28;19963;-64
2022/08/30 07:50:17;;;;;;;;;;;;;;;;;;10502318;28;19928;-64
2022/08/30 07:55:19;;;;;;;;;;;;;;;;;;10501545;28;20365;-64
2022/08/30 08:00:21;;;;;;;;;;;;;;;;;;10501195;28;19931;-64
2022/08/30 08:05:23;;;;;;;;;;;;;;;;;;10501051;28;19931;-64
2022/08/30 08:10:25;;;;;;;;;;;;;;;;;;10501470;28;19932;-64
2022/08/30 08:15:28;;;;;;;;;;;;;;;;;;10500938;28;19925;-64
2022/08/30 08:20:30;;;;;;;;;;;;;;;;;;10500982;28;20020;-64
2022/08/30 08:25:32;;;;;;;;;;;;;;;;;;10500171;28;19924;-65
2022/08/30 08:30:35;;;;;;;;;;;;;;;;;;10500604;28;19931;-64
2022/08/30 08:35:37;;;;;;;;;;;;;;;;;;10500370;28;19931;-64
2022/08/30 08:40:39;;;;;;;;;;;;;;;;;;10499013;28;19951;-65
2022/08/30 08:45:41;;;;;;;;;;;;;;;;;;10500213;28;19924;-65
2022/08/30 08:53:33;;;;;;;;;;;;;;;;;;10499771;28;19924;-64
2022/08/30 08:56:05;;;;;;;;;;;;;;;;;;10499109;28;20364;-64
2022/08/30 09:01:07;;;;;;;;;;;;;;;;;;10499473;28;19932;-65
2022/08/30 09:06:10;;;;;;;;;;;;;;;;;;10499437;28;19924;-64
2022/08/30 09:11:15;;;;;;;;;;;;;;;;;;10499342;28;19925;-65
2022/08/30 09:16:17;;;;;;;;;;;;;;;;;;10498353;28;19947;-65
2022/08/30 09:21:23;;;;;;;;;;;;;;;;;;10498315;28;20307;-65
2022/08/30 09:26:25;;;;;;;;;;;;;;;;;;10498933;28;19925;-65
2022/08/30 09:31:27;;;;;;;;;;;;;;;;;;10498832;28;19931;-65
2022/08/30 09:36:29;;;;;;;;;;;;;;;;;;10498741;28;19928;-65
2022/08/30 09:41:32;;;;;;;;;;;;;;;;;;10497899;28;20279;-65
2022/08/30 09:46:34;;;;;;;;;;;;;;;;;;10498573;28;19932;-64
2022/08/30 09:51:37;;;;;;;;;;;;;;;;;;10499181;28;19924;-65
2022/08/30 09:56:39;;;;;;;;;;;;;;;;;;10506609;28;19928;-64
2022/08/30 10:01:41;;;;;;;;;;;;;;;;;;10506072;28;20367;-65
2022/08/30 10:06:43;;;;;;;;;;;;;;;;;;10505770;28;20459;-66
2022/08/30 10:11:45;;;;;;;;;;;;;;;;;;10505548;28;20390;-66
2022/08/30 10:16:48;;;;;;;;;;;;;;;;;;10487630;28;19929;-66
2022/08/30 10:21:50;;;;;;;;;;;;;;;;;;10506160;28;20062;-66
2022/08/30 10:26:52;;;;;;;;;;;;;;;;;;10505937;28;19924;-66
2022/08/30 10:31:54;;;;;;;;;;;;;;;;;;10505334;28;19967;-66
2022/08/30 10:36:56;;;;;;;;;;;;;;;;;;10504575;28;19925;-66
2022/08/30 10:41:58;;;;;;;;;;;;;;;;;;10504298;28;20268;-66
2022/08/30 10:47:01;;;;;;;;;;;;;;;;;;10504175;28;20382;-66
2022/08/30 10:52:03;;;;;;;;;;;;;;;;;;10503964;28;20272;-66
2022/08/30 10:57:05;;;;;;;;;;;;;;;;;;10503800;28;19931;-66
2022/08/30 11:02:07;;;;;;;;;;;;;;;;;;10504332;28;19924;-67
2022/08/30 11:07:09;;;;;;;;;;;;;;;;;;10503862;28;20406;-67
2022/08/30 11:12:12;;;;;;;;;;;;;;;;;;10503906;28;19931;-67
2022/08/30 11:17:14;;;;;;;;;;;;;;;;;;10503882;28;19931;-67
2022/08/30 11:22:16;;;;;;;;;;;;;;;;;;10503634;28;19925;-67
2022/08/30 11:27:20;;;;;;;;;;;;;;;;;;10501981;28;21441;-67
2022/08/30 11:32:22;;;;;;;;;;;;;;;;;;10503077;28;19931;-67
2022/08/30 11:37:25;;;;;;;;;;;;;;;;;;10483704;28;20283;-65
2022/08/30 11:42:27;;;;;;;;;;;;;;;;;;10501943;28;20379;-66
2022/08/30 11:47:30;;;;;;;;;;;;;;;;;;10503745;28;19928;-66
2022/08/30 11:52:32;;;;;;;;;;;;;;;;;;10531015;28;19988;-66
2022/08/30 11:57:35;;;;;;;;;;;;;;;;;;10502092;28;19924;-66
2022/08/30 12:02:37;;;;;;;;;;;;;;;;;;10501805;28;19928;-66
2022/08/30 12:07:39;;;;;;;;;;;;;;;;;;10500740;28;20020;-66
2022/08/30 12:12:41;;;;;;;;;;;;;;;;;;10493895;28;20275;-67
2022/08/30 12:23:04;;;;;;;;;;;;;;;;;;10500367;28;19924;-67
2022/08/30 12:28:06;;;;;;;;;;;;;;;;;;10500793;28;19924;-67
2022/08/30 12:33:08;;;;;;;;;;;;;;;;;;10500833;28;19930;-67
2022/08/30 12:38:10;;;;;;;;;;;;;;;;;;10500338;28;19928;-67
2022/08/30 12:43:14;;;;;;;;;;;;;;;;;;10500175;28;19928;-67
2022/08/30 12:48:16;;;;;;;;;;;;;;;;;;10500075;28;19933;-67
2022/08/30 12:53:18;;;;;;;;;;;;;;;;;;10499864;28;19924;-67
2022/08/30 12:58:20;;;;;;;;;;;;;;;;;;10499638;28;19935;-67
2022/08/30 13:03:22;;;;;;;;;;;;;;;;;;10498916;28;19947;-68
2022/08/30 13:08:25;;;;;;;;;;;;;;;;;;10499079;28;20504;-67
2022/08/30 13:13:27;;;;;;;;;;;;;;;;;;10499283;28;19925;-67
2022/08/30 13:18:29;;;;;;;;;;;;;;;;;;10498881;28;19925;-67
2022/08/30 13:23:31;;;;;;;;;;;;;;;;;;10499206;28;19925;-67
2022/08/30 13:28:33;;;;;;;;;;;;;;;;;;10499166;28;19944;-68
2022/08/30 13:33:36;;;;;;;;;;;;;;;;;;10498850;28;19929;-67
2022/08/30 13:38:38;;;;;;;;;;;;;;;;;;10498754;28;19924;-67
2022/08/30 13:43:40;;;;;;;;;;;;;;;;;;10498692;28;19934;-67
2022/08/30 13:49:02;;;;;;;;;;;;;;;;;;10497859;28;19924;-67
2022/08/30 13:54:04;;;;;;;;;;;;;;;;;;10498425;28;19925;-67
2022/08/30 13:59:06;;;;;;;;;;;;;;;;;;10497655;28;19924;-67
2022/08/30 14:04:08;;;;;;;;;;;;;;;;;;10497649;28;20372;-67
2022/08/30 14:09:14;;;;;;;;;;;;;;;;;;10497943;28;19978;-60
2022/08/30 14:14:16;;;;;;;;;;;;;;;;;;10497279;28;19925;-60
2022/08/30 14:19:31;;;;;;;;;;;;;;;;;;10497308;28;20333;-60
2022/08/30 14:24:33;;;;;;;;;;;;;;;;;;10497249;28;20372;-59
2022/08/30 14:29:35;;;;;;;;;;;;;;;;;;10493709;28;19925;-60
2022/08/30 14:34:37;;;;;;;;;;;;;;;;;;10495037;28;19925;-60
2022/08/30 14:39:39;;;;;;;;;;;;;;;;;;10501170;28;19932;-60
2022/08/30 14:44:41;;;;;;;;;;;;;;;;;;10503226;28;19931;-60
2022/08/30 14:49:59;;;;;;;;;;;;;;;;;;10503740;28;19925;-60
2022/08/30 14:55:01;;;;;;;;;;;;;;;;;;10503989;28;20019;-60
2022/08/30 15:00:10;;;;;;;;;;;;;;;;;;10503691;28;20049;-60
2022/08/30 15:05:12;;;;;;;;;;;;;;;;;;10503839;28;19935;-59
2022/08/30 15:10:14;;;;;;;;;;;;;;;;;;10503308;28;19925;-60
2022/08/30 15:15:18;;;;;;;;;;;;;;;;;;10503156;28;19947;-60
2022/08/30 15:20:20;;;;;;;;;;;;;;;;;;10503632;28;19935;-60
2022/08/30 15:25:22;;;;;;;;;;;;;;;;;;10500652;28;19924;-60
2022/08/30 15:30:24;;;;;;;;;;;;;;;;;;10503683;28;19931;-59
2022/08/30 15:35:27;;;;;;;;;;;;;;;;;;10500782;28;19931;-59
2022/08/30 15:40:29;;;;;;;;;;;;;;;;;;10502574;28;19925;-60
2022/08/30 15:45:31;;;;;;;;;;;;;;;;;;10501918;28;19966;-60
2022/08/30 15:50:34;;;;;;;;;;;;;;;;;;10499562;28;19932;-59
2022/08/30 15:55:36;;;;;;;;;;;;;;;;;;10499626;28;20015;-59
2022/08/30 16:00:39;;;;;;;;;;;;;;;;;;10500170;28;19940;-59
2022/08/30 16:05:45;;;;;;;;;;;;;;;;;;10499563;28;19932;-59
2022/08/30 16:10:48;;;;;;;;;;;;;;;;;;10499771;28;19924;-59
2022/08/30 16:15:52;;;;;;;;;;;;;;;;;;10497386;28;19925;-59
2022/08/30 16:20:55;;;;;;;;;;;;;;;;;;10497285;28;19924;-59
2022/08/30 16:25:57;;;;;;;;;;;;;;;;;;10496131;28;20838;-59
2022/08/30 16:31:04;;;;;;;;;;;;;;;;;;10511904;22;19925;-69
2022/08/30 16:36:06;;;;;;;;;;;;;;;;;;10499003;28;19974;-70
2022/08/30 16:41:08;;;;;;;;;;;;;;;;;;10494703;28;19963;-70
2022/08/30 16:46:10;;;;;;;;;;;;;;;;;;10481516;28;19924;-70
2022/08/30 16:51:13;;;;;;;;;;;;;;;;;;10498904;28;20013;-70
2022/08/30 16:56:15;;;;;;;;;;;;;;;;;;10481459;28;19986;-69
2022/08/30 17:01:17;;;;;;;;;;;;;;;;;;10497426;28;20375;-69
2022/08/30 17:06:19;;;;;;;;;;;;;;;;;;10498900;28;20284;-65
2022/08/30 17:11:22;;;;;;;;;;;;;;;;;;10495616;28;19991;-69
2022/08/30 17:16:24;;;;;;;;;;;;;;;;;;10499324;28;19924;-69
2022/08/30 17:21:29;;;;;;;;;;;;;;;;;;10498463;28;19924;-69
2022/08/30 17:26:31;;;;;;;;;;;;;;;;;;10495999;28;19932;-69
2022/08/30 17:31:33;;;;;;;;;;;;;;;;;;10498587;28;19968;-69
2022/08/30 17:36:35;;;;;;;;;;;;;;;;;;10478476;28;19932;-69
2022/08/30 17:41:38;;;;;;;;;;;;;;;;;;10490727;28;20466;-69
2022/08/30 17:46:40;;;;;;;;;;;;;;;;;;10490848;28;19932;-69
2022/08/30 17:51:43;;;;;;;;;;;;;;;;;;10491295;28;19932;-69
2022/08/30 17:56:45;;;;;;;;;;;;;;;;;;10490553;28;19928;-69
2022/08/30 18:01:47;;;;;;;;;;;;;;;;;;10491213;28;20230;-69
2022/08/30 18:06:49;;;;;;;;;;;;;;;;;;10491027;28;20456;-69
2022/08/30 18:11:51;;;;;;;;;;;;;;;;;;10450674;28;19936;-69
2022/08/30 18:16:54;;;;;;;;;;;;;;;;;;10457197;28;20393;-69
2022/08/30 18:21:56;;;;;;;;;;;;;;;;;;10457164;28;19936;-69
2022/08/30 18:26:58;;;;;;;;;;;;;;;;;;10498502;28;19929;-69
2022/08/30 18:32:00;;;;;;;;;;;;;;;;;;10497653;28;19938;-69
2022/08/30 18:37:02;;;;;;;;;;;;;;;;;;10497342;28;19936;-69
2022/08/30 18:42:05;;;;;;;;;;;;;;;;;;10497989;28;19936;-69
2022/08/30 18:47:08;;;;;;;;;;;;;;;;;;10497687;28;19935;-69
2022/08/30 18:52:10;;;;;;;;;;;;;;;;;;10497694;28;19940;-68
2022/08/30 18:57:12;;;;;;;;;;;;;;;;;;10494938;28;20326;-69
2022/08/30 19:02:14;;;;;;;;;;;;;;;;;;10495175;28;20293;-68
2022/08/30 19:07:16;;;;;;;;;;;;;;;;;;10497706;28;19924;-68
2022/08/30 19:12:19;;;;;;;;;;;;;;;;;;10495877;28;19935;-69
2022/08/30 19:17:21;;;;;;;;;;;;;;;;;;10496796;28;19932;-68
2022/08/30 19:22:23;;;;;;;;;;;;;;;;;;10493963;28;19928;-68
2022/08/30 19:27:28;;;;;;;;;;;;;;;;;;10495491;28;20390;-68
2022/08/30 19:32:39;;;;;;;;;;;;;;;;;;10492451;28;19967;-68
2022/08/30 19:37:42;;;;;;;;;;;;;;;;;;10495380;28;19928;-68
2022/08/30 19:42:44;;;;;;;;;;;;;;;;;;10495755;28;19936;-68
2022/08/30 19:47:47;;;;;;;;;;;;;;;;;;10493382;28;19925;-68
2022/08/30 19:52:49;;;;;;;;;;;;;;;;;;10493464;28;19929;-68
2022/08/30 19:57:55;;;;;;;;;;;;;;;;;;10494231;28;20366;-68
2022/08/30 20:02:57;;;;;;;;;;;;;;;;;;10513958;28;19928;-68
2022/08/30 20:07:59;;;;;;;;;;;;;;;;;;10492417;28;19944;-68
2022/08/30 20:13:01;;;;;;;;;;;;;;;;;;10495351;28;19931;-68
2022/08/30 20:18:03;;;;;;;;;;;;;;;;;;10499204;28;19924;-68
2022/08/30 20:23:15;;;;;;;;;;;;;;;;;;10498074;28;20282;-68
2022/08/30 20:28:18;;;;;;;;;;;;;;;;;;10497097;28;19939;-67
2022/08/30 20:33:20;;;;;;;;;;;;;;;;;;10499238;28;19974;-68
2022/08/30 20:38:22;;;;;;;;;;;;;;;;;;10500078;28;20383;-68
2022/08/30 20:43:24;;;;;;;;;;;;;;;;;;10497974;28;19925;-67
2022/08/30 20:48:27;;;;;;;;;;;;;;;;;;10498310;28;19924;-68
2022/08/30 20:53:29;;;;;;;;;;;;;;;;;;10498247;28;20157;-68
2022/08/30 20:58:32;;;;;;;;;;;;;;;;;;10500377;28;19925;-68
2022/08/30 21:03:34;;;;;;;;;;;;;;;;;;10498519;28;19924;-67
2022/08/30 21:08:36;;;;;;;;;;;;;;;;;;10497971;28;19932;-67
2022/08/30 21:13:38;;;;;;;;;;;;;;;;;;10493432;28;19924;-68
2022/08/30 21:18:40;;;;;;;;;;;;;;;;;;10498557;28;19928;-68
2022/08/30 21:23:42;;;;;;;;;;;;;;;;;;10495383;28;20288;-68
2022/08/30 21:28:44;;;;;;;;;;;;;;;;;;10496247;28;19931;-67
2022/08/30 21:33:46;;;;;;;;;;;;;;;;;;10497035;28;19930;-67
2022/08/30 21:38:48;;;;;;;;;;;;;;;;;;10497556;28;19925;-67
2022/08/30 21:43:50;;;;;;;;;;;;;;;;;;10498584;28;19928;-67
2022/08/30 21:48:52;;;;;;;;;;;;;;;;;;10500557;28;19925;-67
2022/08/30 21:53:54;;;;;;;;;;;;;;;;;;10507116;28;19931;-67
2022/08/30 21:58:57;;;;;;;;;;;;;;;;;;10505969;28;19932;-67
2022/08/30 22:03:59;;;;;;;;;;;;;;;;;;10505772;28;20283;-67
2022/08/30 22:09:01;;;;;;;;;;;;;;;;;;10503999;28;19924;-67
2022/08/30 22:14:03;;;;;;;;;;;;;;;;;;10506334;28;19924;-67
2022/08/30 22:19:05;;;;;;;;;;;;;;;;;;10487463;28;19932;-67
2022/08/30 22:24:07;;;;;;;;;;;;;;;;;;10505048;28;19932;-67
2022/08/30 22:29:09;;;;;;;;;;;;;;;;;;10502508;28;19925;-67
2022/08/30 22:34:12;;;;;;;;;;;;;;;;;;10486572;28;19943;-67
2022/08/30 22:39:14;;;;;;;;;;;;;;;;;;10503884;28;20367;-67
2022/08/30 22:44:18;;;;;;;;;;;;;;;;;;10503171;28;19931;-67
2022/08/30 22:49:21;;;;;;;;;;;;;;;;;;10502621;28;20287;-67
2022/08/30 22:54:23;;;;;;;;;;;;;;;;;;10504121;28;20397;-67
2022/08/30 22:59:25;;;;;;;;;;;;;;;;;;10502875;28;19932;-67
2022/08/30 23:04:32;;;;;;;;;;;;;;;;;;10503428;28;20007;-67
2022/08/30 23:09:34;;;;;;;;;;;;;;;;;;10502632;28;19932;-67
2022/08/30 23:14:36;;;;;;;;;;;;;;;;;;10503995;28;19931;-67
2022/08/30 23:19:38;;;;;;;;;;;;;;;;;;10502616;28;19928;-67
